Time;durP1;ratioP1;P1;durP2;ratioP2;P2;SDS_P1;SDS_P2;PMS_P1;PMS_P2;Temp;Humidity;BMP_temperature;BMP_pressure;BME280_temperature;BME280_humidity;BME280_pressure;Samples;Min_cycle;Max_cycle;Signal;HPM_P1;HPM_P2
2023/12/28 00:00:45;;;;;;;;;;;;;;;18.99;57.52;102088.28;7397192;19;1590;-50
2023/12/28 00:03:13;;;;;;;;;;;;;;;18.99;57.04;102080.22;7397177;19;1836;-51
2023/12/28 00:05:42;;;;;;;;;;;;;;;19.04;57.03;102085.31;7396445;19;1014;-50
2023/12/28 00:08:10;;;;;;;;;;;;;;;19.21;56.64;102073.41;7397062;19;956;-51
2023/12/28 00:10:41;;;;;;;;;;;;;;;19.59;55.89;102080.63;7396891;19;1828;-50
2023/12/28 00:13:09;;;;;;;;;;;;;;;19.78;55.21;102083.78;7394813;19;1910;-51
2023/12/28 00:15:38;;;;;;;;;;;;;;;19.91;54.63;102082.91;7393883;19;1125;-51
2023/12/28 00:18:06;;;;;;;;;;;;;;;19.90;54.66;102082.06;7391439;19;1849;-51
2023/12/28 00:20:35;;;;;;;;;;;;;;;20.08;54.31;102082.56;7392443;19;1567;-51
2023/12/28 00:23:03;;;;;;;;;;;;;;;19.95;54.70;102085.25;7394072;19;1463;-51
2023/12/28 00:25:31;;;;;;;;;;;;;;;19.36;56.14;102082.22;7391778;19;1984;-50
2023/12/28 00:28:02;;;;;;;;;;;;;;;19.10;56.65;102086.69;7394876;19;1097;-51
2023/12/28 00:30:32;;;;;;;;;;;;;;;19.04;57.10;102090.66;7391376;19;1473;-50
2023/12/28 00:33:00;;;;;;;;;;;;;;;19.04;57.03;102096.03;7394231;19;1581;-51
2023/12/28 00:35:28;;;;;;;;;;;;;;;18.97;57.08;102087.53;7394823;19;1019;-50
2023/12/28 00:37:56;;;;;;;;;;;;;;;19.42;55.84;102071.94;7390105;19;1858;-51
2023/12/28 00:40:25;;;;;;;;;;;;;;;19.70;55.32;102072.69;7394278;19;1145;-51
2023/12/28 00:42:53;;;;;;;;;;;;;;;19.84;55.07;102072.59;7391983;19;1520;-51
2023/12/28 00:45:24;;;;;;;;;;;;;;;19.92;54.57;102074.75;7377847;19;1258;-52
2023/12/28 00:47:55;;;;;;;;;;;;;;;20.02;54.54;102078.47;7393252;19;1326;-51
2023/12/28 00:50:23;;;;;;;;;;;;;;;20.05;54.25;102085.44;7392894;19;1554;-52
2023/12/28 00:52:52;;;;;;;;;;;;;;;20.02;54.58;102099.13;7391165;19;1705;-51
2023/12/28 00:55:20;;;;;;;;;;;;;;;19.59;55.49;102104.78;7393870;19;1589;-51
2023/12/28 00:57:49;;;;;;;;;;;;;;;19.24;56.54;102111.63;7393176;19;1865;-51
2023/12/28 01:00:17;;;;;;;;;;;;;;;19.10;56.86;102105.47;7394766;19;1021;-50
2023/12/28 01:02:49;;;;;;;;;;;;;;;19.11;56.91;102104.50;7392866;19;1575;-51
2023/12/28 01:05:17;;;;;;;;;;;;;;;19.07;56.70;102088.63;7393612;19;1900;-50
2023/12/28 01:07:45;;;;;;;;;;;;;;;19.52;55.73;102116.91;7391306;19;2063;-51
2023/12/28 01:10:14;;;;;;;;;;;;;;;19.66;55.23;102096.19;7392965;19;1460;-50
2023/12/28 01:12:42;;;;;;;;;;;;;;;19.95;54.51;102100.50;7393260;19;1646;-51
2023/12/28 01:15:11;;;;;;;;;;;;;;;20.05;54.14;102098.88;7392499;19;1673;-51
2023/12/28 01:17:40;;;;;;;;;;;;;;;19.99;54.59;102104.69;7388827;19;1861;-51
2023/12/28 01:20:11;;;;;;;;;;;;;;;20.11;53.97;102097.59;7392478;19;1690;-51
2023/12/28 01:22:40;;;;;;;;;;;;;;;19.48;55.39;102106.41;7392711;19;1708;-50
2023/12/28 01:25:09;;;;;;;;;;;;;;;19.19;56.48;102118.25;7393203;19;1023;-50
2023/12/28 01:27:37;;;;;;;;;;;;;;;19.15;56.67;102112.22;7390003;19;1417;-51
2023/12/28 01:30:06;;;;;;;;;;;;;;;19.15;56.73;102112.22;7390304;19;1476;-51
2023/12/28 01:32:34;;;;;;;;;;;;;;;19.10;56.55;102086.69;7391404;19;1389;-50
2023/12/28 01:35:02;;;;;;;;;;;;;;;19.57;55.54;102106.72;7392177;19;1402;-51
2023/12/28 01:37:33;;;;;;;;;;;;;;;19.44;55.50;102096.84;7392679;19;1843;-51
2023/12/28 01:40:02;;;;;;;;;;;;;;;19.06;56.46;102096.78;7391889;19;1101;-51
2023/12/28 01:42:31;;;;;;;;;;;;;;;18.83;56.99;102106.34;7389808;19;1807;-50
2023/12/28 01:45:00;;;;;;;;;;;;;;;19.08;56.54;102103.75;7391594;19;1350;-50
2023/12/28 01:47:28;;;;;;;;;;;;;;;19.49;55.38;102091.16;7376439;19;1569;-51
2023/12/28 01:49:57;;;;;;;;;;;;;;;19.53;55.47;102094.47;7392370;19;1674;-51
2023/12/28 01:52:25;;;;;;;;;;;;;;;19.58;55.20;102082.47;7389976;19;1594;-51
2023/12/28 01:54:56;;;;;;;;;;;;;;;19.29;55.83;102073.75;7391662;19;1094;-50
2023/12/28 01:57:25;;;;;;;;;;;;;;;18.98;56.82;102083.00;7390791;19;1854;-50
2023/12/28 01:59:54;;;;;;;;;;;;;;;18.91;56.84;102097.81;7390507;19;1538;-50
2023/12/28 02:02:23;;;;;;;;;;;;;;;18.93;56.99;102094.06;7390601;19;1563;-51
2023/12/28 02:04:52;;;;;;;;;;;;;;;18.98;56.87;102093.75;7391699;19;1890;-51
2023/12/28 02:07:21;;;;;;;;;;;;;;;19.08;56.43;102092.19;7390959;19;1400;-51
2023/12/28 02:09:49;;;;;;;;;;;;;;;19.53;55.32;102094.47;7390587;19;1590;-51
2023/12/28 02:12:20;;;;;;;;;;;;;;;19.68;54.97;102075.47;7390989;19;1657;-51
2023/12/28 02:14:49;;;;;;;;;;;;;;;19.88;54.67;102093.88;7391094;19;1343;-51
2023/12/28 02:17:18;;;;;;;;;;;;;;;19.94;54.16;102082.69;7390885;19;1849;-51
2023/12/28 02:19:50;;;;;;;;;;;;;;;20.13;53.81;102088.44;7391029;19;1678;-51
2023/12/28 02:22:18;;;;;;;;;;;;;;;20.05;54.01;102080.97;7392427;19;1023;-51
2023/12/28 02:25:01;;;;;;;;;;;;;;;19.80;54.61;102089.91;7391214;19;1903;-51
2023/12/28 02:27:33;;;;;;;;;;;;;;;19.27;55.74;102097.13;7392959;19;1066;-51
2023/12/28 02:30:01;;;;;;;;;;;;;;;19.09;56.37;102096.56;7394369;19;1830;-51
2023/12/28 02:32:35;;;;;;;;;;;;;;;19.10;56.35;102089.38;7398027;19;1433;-51
2023/12/28 02:35:09;;;;;;;;;;;;;;;19.09;56.33;102085.84;7398294;19;1860;-51
2023/12/28 02:37:37;;;;;;;;;;;;;;;19.44;55.37;102086.09;7397875;19;1859;-51
2023/12/28 02:40:06;;;;;;;;;;;;;;;19.63;54.79;102082.13;7398206;19;1030;-51
2023/12/28 02:42:37;;;;;;;;;;;;;;;19.83;54.56;102068.19;7395100;19;1879;-51
2023/12/28 02:45:06;;;;;;;;;;;;;;;19.96;54.05;102065.50;7397375;19;1255;-51
2023/12/28 02:47:34;;;;;;;;;;;;;;;20.03;53.84;102065.91;7382048;19;1736;-51
2023/12/28 02:50:02;;;;;;;;;;;;;;;20.04;54.05;102051.53;7396636;19;1243;-50
2023/12/28 02:52:31;;;;;;;;;;;;;;;20.15;53.54;102051.59;7396120;19;1378;-50
2023/12/28 02:54:59;;;;;;;;;;;;;;;19.79;54.28;102058.63;7397925;19;1153;-51
2023/12/28 02:57:27;;;;;;;;;;;;;;;19.22;55.52;102075.16;7396973;19;1848;-51
2023/12/28 03:00:02;;;;;;;;;;;;;;;19.08;56.15;102079.63;7397026;19;1832;-51
2023/12/28 03:02:31;;;;;;;;;;;;;;;19.08;56.25;102084.13;7396619;19;1757;-51
2023/12/28 03:04:59;;;;;;;;;;;;;;;19.07;56.28;102077.91;7396061;19;1553;-51
2023/12/28 03:07:28;;;;;;;;;;;;;;;19.48;55.29;102092.13;7396605;19;1467;-51
2023/12/28 03:09:56;;;;;;;;;;;;;;;19.64;54.65;102081.19;7396135;19;1741;-51
2023/12/28 03:12:24;;;;;;;;;;;;;;;19.72;54.67;102081.53;7395530;19;1341;-51
2023/12/28 03:14:53;;;;;;;;;;;;;;;19.91;54.13;102078.38;7396161;19;1437;-51
2023/12/28 03:17:24;;;;;;;;;;;;;;;20.04;53.87;102067.63;7395554;19;1426;-51
2023/12/28 03:19:52;;;;;;;;;;;;;;;20.05;53.61;102066.66;7396592;19;1196;-50
2023/12/28 03:22:21;;;;;;;;;;;;;;;20.08;53.44;102069.13;7396763;19;1297;-50
2023/12/28 03:24:49;;;;;;;;;;;;;;;19.45;55.10;102074.41;7396509;19;1619;-51
2023/12/28 03:27:17;;;;;;;;;;;;;;;19.14;55.94;102073.00;7396561;19;2239;-51
2023/12/28 03:29:46;;;;;;;;;;;;;;;19.05;56.24;102084.34;7393164;19;1903;-51
2023/12/28 03:32:14;;;;;;;;;;;;;;;19.02;56.38;102074.69;7396748;19;1810;-51
2023/12/28 03:34:45;;;;;;;;;;;;;;;19.06;56.05;102064.63;7397374;19;2569;-50
2023/12/28 03:37:14;;;;;;;;;;;;;;;19.52;55.17;102072.16;7396832;19;1910;-50
2023/12/28 03:39:42;;;;;;;;;;;;;;;19.77;54.54;102076.69;7391150;19;1837;-51
2023/12/28 03:42:10;;;;;;;;;;;;;;;19.98;53.75;102068.09;7392171;19;1481;-51
2023/12/28 03:44:38;;;;;;;;;;;;;;;19.97;53.73;102071.72;7396078;19;1692;-51
2023/12/28 03:47:07;;;;;;;;;;;;;;;20.04;53.63;102067.63;7381037;19;1042;-51
2023/12/28 03:49:35;;;;;;;;;;;;;;;20.12;53.40;102086.75;7395650;19;1933;-51
2023/12/28 03:52:06;;;;;;;;;;;;;;;19.75;54.07;102100.09;7394104;19;1793;-50
2023/12/28 03:54:35;;;;;;;;;;;;;;;19.34;55.42;102117.22;7394302;19;1462;-50
2023/12/28 03:57:03;;;;;;;;;;;;;;;19.03;55.97;102092.47;7395280;19;1670;-51
2023/12/28 03:59:31;;;;;;;;;;;;;;;18.99;56.17;102088.28;7393385;19;1859;-51
2023/12/28 04:02:00;;;;;;;;;;;;;;;18.77;56.68;102090.66;7393797;19;1723;-51
2023/12/28 04:04:28;;;;;;;;;;;;;;;18.73;56.75;102081.94;7393341;19;1507;-51
2023/12/28 04:06:56;;;;;;;;;;;;;;;18.59;56.87;102080.19;7391981;19;1855;-51
2023/12/28 04:09:27;;;;;;;;;;;;;;;18.43;57.60;102098.22;7392799;19;1196;-51
2023/12/28 04:11:55;;;;;;;;;;;;;;;18.28;57.58;102100.94;7394373;19;1409;-50
2023/12/28 04:14:24;;;;;;;;;;;;;;;18.27;57.69;102091.16;7395377;19;1125;-53
2023/12/28 04:16:52;;;;;;;;;;;;;;;18.19;57.79;102089.94;7394950;19;1062;-50
2023/12/28 04:19:20;;;;;;;;;;;;;;;18.15;57.89;102104.50;7393872;19;1863;-50
2023/12/28 04:21:49;;;;;;;;;;;;;;;18.15;57.61;102075.91;7394830;19;1547;-51
2023/12/28 04:24:17;;;;;;;;;;;;;;;18.19;57.83;102120.25;7393161;19;1731;-51
2023/12/28 04:26:48;;;;;;;;;;;;;;;18.17;57.63;102099.91;7394896;19;1819;-51
2023/12/28 04:29:16;;;;;;;;;;;;;;;18.15;57.51;102124.09;7395241;19;1034;-50
2023/12/28 04:31:45;;;;;;;;;;;;;;;18.06;57.67;102095.19;7393801;19;1911;-51
2023/12/28 04:34:14;;;;;;;;;;;;;;;18.07;57.70;102108.50;7394033;19;1432;-51
2023/12/28 04:36:42;;;;;;;;;;;;;;;18.09;57.71;102111.09;7394567;19;1662;-51
2023/12/28 04:39:11;;;;;;;;;;;;;;;18.06;57.76;102111.25;7392625;19;1841;-51
2023/12/28 04:41:39;;;;;;;;;;;;;;;17.99;57.87;102089.38;7393900;19;1054;-50
2023/12/28 04:44:10;;;;;;;;;;;;;;;18.01;57.57;102111.56;7393756;19;1570;-50
2023/12/28 04:46:41;;;;;;;;;;;;;;;17.97;57.84;102095.81;7379123;19;1729;-50
2023/12/28 04:49:09;;;;;;;;;;;;;;;18.02;57.66;102104.38;7393238;19;1484;-51
2023/12/28 04:51:37;;;;;;;;;;;;;;;17.87;57.83;102090.16;7392448;19;1724;-50
2023/12/28 04:54:05;;;;;;;;;;;;;;;17.91;58.00;102085.50;7393327;19;1680;-51
2023/12/28 04:56:34;;;;;;;;;;;;;;;17.91;57.72;102106.91;7393031;19;1546;-50
2023/12/28 04:59:02;;;;;;;;;;;;;;;17.85;58.17;102076.88;7391447;19;1961;-51
2023/12/28 05:01:33;;;;;;;;;;;;;;;17.94;58.14;102077.25;7392286;19;1748;-51
2023/12/28 05:04:01;;;;;;;;;;;;;;;18.02;57.88;102082.97;7391538;19;1609;-50
2023/12/28 05:06:30;;;;;;;;;;;;;;;17.87;58.27;102085.66;7393649;19;1666;-51
2023/12/28 05:08:58;;;;;;;;;;;;;;;17.96;57.99;102078.88;7392945;19;1444;-52
2023/12/28 05:11:27;;;;;;;;;;;;;;;17.96;57.89;102094.06;7391086;19;1039;-51
2023/12/28 05:13:55;;;;;;;;;;;;;;;17.96;57.68;102086.03;7392828;19;1823;-50
2023/12/28 05:16:24;;;;;;;;;;;;;;;17.85;57.67;102082.22;7391977;19;2079;-50
2023/12/28 05:18:54;;;;;;;;;;;;;;;17.86;57.66;102086.59;7392246;19;1881;-51
2023/12/28 05:21:23;;;;;;;;;;;;;;;17.86;57.50;102089.28;7392307;19;1658;-51
2023/12/28 05:23:51;;;;;;;;;;;;;;;17.87;57.77;102090.16;7391882;19;1716;-50
2023/12/28 05:26:20;;;;;;;;;;;;;;;17.80;57.71;102094.13;7391930;19;1393;-51
2023/12/28 05:28:48;;;;;;;;;;;;;;;17.91;57.92;102096.19;7392924;19;1233;-50
2023/12/28 05:31:17;;;;;;;;;;;;;;;18.33;56.98;102089.91;7391856;19;1949;-51
2023/12/28 05:33:45;;;;;;;;;;;;;;;18.20;57.03;102070.22;7391056;19;1570;-51
2023/12/28 05:36:16;;;;;;;;;;;;;;;17.85;57.95;102076.88;7390989;19;1708;-51
2023/12/28 05:38:45;;;;;;;;;;;;;;;18.00;57.69;102069.69;7390215;19;1869;-52
2023/12/28 05:41:13;;;;;;;;;;;;;;;17.84;57.80;102080.50;7391678;19;1014;-50
2023/12/28 05:43:41;;;;;;;;;;;;;;;17.78;58.05;102075.50;7390980;19;1516;-51
2023/12/28 05:46:09;;;;;;;;;;;;;;;17.82;57.73;102082.38;7391793;19;1618;-50
2023/12/28 05:48:38;;;;;;;;;;;;;;;17.78;57.61;102075.50;7376212;19;1717;-50
2023/12/28 05:51:06;;;;;;;;;;;;;;;17.83;57.69;102086.81;7391337;19;1588;-51
2023/12/28 05:53:37;;;;;;;;;;;;;;;17.78;57.66;102091.53;7389878;19;1400;-51
2023/12/28 05:56:06;;;;;;;;;;;;;;;17.77;57.71;102079.13;7390918;19;1551;-51
2023/12/28 05:58:34;;;;;;;;;;;;;;;18.17;56.98;102086.50;7389187;19;1851;-50
2023/12/28 06:01:04;;;;;;;;;;;;;;;18.23;56.59;102078.09;7390995;19;2042;-51
2023/12/28 06:03:33;;;;;;;;;;;;;;;17.96;57.50;102086.03;7395065;19;1124;-51
2023/12/28 06:06:01;;;;;;;;;;;;;;;17.86;57.67;102073.22;7399745;19;1725;-51
2023/12/28 06:08:29;;;;;;;;;;;;;;;17.91;57.44;102069.44;7399195;19;1297;-50
2023/12/28 06:11:00;;;;;;;;;;;;;;;17.78;57.73;102080.84;7399351;19;1061;-50
2023/12/28 06:13:29;;;;;;;;;;;;;;;17.82;57.42;102074.34;7397325;19;1863;-50
2023/12/28 06:15:57;;;;;;;;;;;;;;;17.80;57.58;102078.06;7398169;19;1729;-50
2023/12/28 06:18:25;;;;;;;;;;;;;;;17.79;57.50;102093.28;7397327;19;1989;-50
2023/12/28 06:20:53;;;;;;;;;;;;;;;17.76;57.56;102080.06;7398021;19;1685;-50
2023/12/28 06:23:22;;;;;;;;;;;;;;;17.79;57.65;102066.53;7396984;19;1511;-50
2023/12/28 06:25:50;;;;;;;;;;;;;;;18.48;56.28;102082.69;7398472;19;1785;-50
2023/12/28 06:28:21;;;;;;;;;;;;;;;18.28;56.61;102066.13;7398938;19;1054;-50
2023/12/28 06:30:49;;;;;;;;;;;;;;;18.08;57.30;102071.88;7397206;19;1885;-51
2023/12/28 06:33:17;;;;;;;;;;;;;;;18.03;56.92;102080.22;7397271;19;1421;-51
2023/12/28 06:35:46;;;;;;;;;;;;;;;17.86;57.54;102070.56;7396735;19;1807;-50
2023/12/28 06:38:14;;;;;;;;;;;;;;;17.81;57.66;102079.81;7397694;19;1764;-50
2023/12/28 06:40:42;;;;;;;;;;;;;;;17.80;57.55;102078.06;7395049;19;1841;-51
2023/12/28 06:43:11;;;;;;;;;;;;;;;17.83;57.59;102078.78;7396237;19;1864;-50
2023/12/28 06:45:41;;;;;;;;;;;;;;;17.71;57.83;102068.81;7396715;19;1692;-50
2023/12/28 06:48:10;;;;;;;;;;;;;;;17.67;58.23;102083.34;7381098;19;1234;-50
2023/12/28 06:50:38;;;;;;;;;;;;;;;17.62;58.31;102083.59;7397217;19;1420;-50
2023/12/28 06:53:06;;;;;;;;;;;;;;;17.80;58.00;102078.06;7394764;19;1715;-50
2023/12/28 06:55:35;;;;;;;;;;;;;;;17.84;57.56;102080.50;7396733;19;1745;-50
2023/12/28 06:58:03;;;;;;;;;;;;;;;17.91;57.44;102074.78;7398800;19;1022;-50
2023/12/28 07:00:31;;;;;;;;;;;;;;;17.78;57.04;102072.81;7394168;19;1872;-50
2023/12/28 07:03:02;;;;;;;;;;;;;;;17.80;57.59;102068.22;7396136;19;1369;-50
2023/12/28 07:05:31;;;;;;;;;;;;;;;18.43;56.19;102071.44;7395829;19;1665;-51
2023/12/28 07:07:59;;;;;;;;;;;;;;;18.51;56.11;102074.47;7395492;19;1800;-50
2023/12/28 07:10:27;;;;;;;;;;;;;;;18.25;56.59;102079.69;7397767;19;1736;-50
2023/12/28 07:12:55;;;;;;;;;;;;;;;18.12;57.05;102073.41;7396910;19;1815;-50
2023/12/28 07:15:25;;;;;;;;;;;;;;;18.06;56.99;102073.78;7396312;19;1716;-50
2023/12/28 07:17:53;;;;;;;;;;;;;;;18.01;57.41;102066.06;7396418;19;1437;-50
2023/12/28 07:20:24;;;;;;;;;;;;;;;17.89;57.72;102066.84;7396048;19;1843;-50
2023/12/28 07:22:52;;;;;;;;;;;;;;;17.85;57.60;102079.56;7397667;19;1062;-50
2023/12/28 07:25:21;;;;;;;;;;;;;;;17.92;57.37;102069.31;7395833;19;1429;-50
2023/12/28 07:27:49;;;;;;;;;;;;;;;17.78;57.79;102071.97;7395443;19;1440;-50
2023/12/28 07:30:18;;;;;;;;;;;;;;;17.72;57.93;102067.84;7395857;19;1685;-50
2023/12/28 07:32:47;;;;;;;;;;;;;;;17.99;57.78;102085.88;7395783;19;1334;-51
2023/12/28 07:35:15;;;;;;;;;;;;;;;18.31;56.73;102064.22;7396153;19;1827;-51
2023/12/28 07:37:47;;;;;;;;;;;;;;;18.48;56.21;102072.88;7396126;19;1418;-51
2023/12/28 07:40:15;;;;;;;;;;;;;;;18.54;56.19;102062.69;7395705;19;1856;-51
2023/12/28 07:42:44;;;;;;;;;;;;;;;18.56;56.38;102075.03;7393100;19;1575;-51
2023/12/28 07:45:12;;;;;;;;;;;;;;;18.40;56.56;102093.03;7395327;19;1152;-51
2023/12/28 07:47:40;;;;;;;;;;;;;;;18.24;56.75;102078.00;7380373;19;1451;-51
2023/12/28 07:50:10;;;;;;;;;;;;;;;18.12;57.34;102078.75;7395813;19;1586;-50
2023/12/28 07:52:39;;;;;;;;;;;;;;;18.02;57.64;102083.81;7395162;19;1456;-51
2023/12/28 07:55:10;;;;;;;;;;;;;;;17.98;57.53;102097.50;7395000;19;1590;-50
2023/12/28 07:57:38;;;;;;;;;;;;;;;17.87;57.83;102080.31;7396252;19;1019;-51
2023/12/28 08:00:08;;;;;;;;;;;;;;;17.80;58.17;102084.28;7394049;19;1839;-51
2023/12/28 08:02:36;;;;;;;;;;;;;;;17.78;58.06;102077.31;7394898;19;1836;-51
2023/12/28 08:05:05;;;;;;;;;;;;;;;17.82;57.92;102090.41;7394242;19;1827;-50
2023/12/28 08:07:33;;;;;;;;;;;;;;;17.74;58.02;102091.84;7395831;19;1802;-50
2023/12/28 08:10:02;;;;;;;;;;;;;;;17.72;58.21;102091.94;7394367;19;1410;-51
2023/12/28 08:12:32;;;;;;;;;;;;;;;17.72;58.23;102081.22;7394444;19;1744;-50
2023/12/28 08:15:01;;;;;;;;;;;;;;;17.84;58.05;102087.66;7394085;19;1401;-51
2023/12/28 08:17:30;;;;;;;;;;;;;;;17.85;58.04;102090.25;7394809;19;1499;-51
2023/12/28 08:19:58;;;;;;;;;;;;;;;17.83;58.12;102073.44;7393826;19;1843;-51
2023/12/28 08:22:27;;;;;;;;;;;;;;;17.87;57.90;102079.47;7394375;19;1570;-50
2023/12/28 08:24:56;;;;;;;;;;;;;;;17.72;58.29;102069.66;7393942;19;1009;-51
2023/12/28 08:27:24;;;;;;;;;;;;;;;17.78;58.31;102080.84;7392408;19;1857;-51
2023/12/28 08:29:55;;;;;;;;;;;;;;;18.12;57.70;102094.81;7393226;19;1737;-51
2023/12/28 08:32:23;;;;;;;;;;;;;;;18.32;57.22;102080.16;7393452;19;1844;-51
2023/12/28 08:34:52;;;;;;;;;;;;;;;18.23;57.34;102070.91;7394431;19;1030;-51
2023/12/28 08:37:20;;;;;;;;;;;;;;;18.20;57.42;102105.03;7392661;19;1773;-51
2023/12/28 08:39:48;;;;;;;;;;;;;;;18.10;57.56;102072.63;7391710;19;1841;-50
2023/12/28 08:42:17;;;;;;;;;;;;;;;18.10;57.79;102096.72;7392481;19;1412;-50
2023/12/28 08:44:45;;;;;;;;;;;;;;;18.00;57.70;102090.25;7393577;19;1819;-50
2023/12/28 08:47:16;;;;;;;;;;;;;;;17.92;58.02;102073.81;7382117;19;1760;-54
2023/12/28 08:49:44;;;;;;;;;;;;;;;17.91;57.96;102064.09;7392032;19;1491;-51
2023/12/28 08:52:13;;;;;;;;;;;;;;;17.95;58.06;102076.31;7390993;19;1326;-50
2023/12/28 08:54:42;;;;;;;;;;;;;;;17.94;57.94;102063.88;7394162;19;1769;-50
2023/12/28 08:57:11;;;;;;;;;;;;;;;17.91;58.07;102061.41;7393334;19;1612;-51
2023/12/28 08:59:39;;;;;;;;;;;;;;;17.93;58.15;102062.16;7392639;19;1868;-51
2023/12/28 09:02:07;;;;;;;;;;;;;;;17.94;57.91;102058.50;7392706;19;1508;-51
2023/12/28 09:04:38;;;;;;;;;;;;;;;17.97;58.06;102047.63;7393914;19;1015;-51
2023/12/28 09:07:07;;;;;;;;;;;;;;;17.97;58.06;102047.63;7393655;19;1046;-51
2023/12/28 09:09:35;;;;;;;;;;;;;;;18.28;57.42;102044.69;7391256;19;1891;-51
2023/12/28 09:12:03;;;;;;;;;;;;;;;18.57;56.95;102047.28;7391414;19;1674;-51
2023/12/28 09:14:32;;;;;;;;;;;;;;;18.56;56.60;102040.22;7392647;19;1362;-51
2023/12/28 09:17:00;;;;;;;;;;;;;;;18.47;56.94;102035.47;7392238;19;1325;-51
2023/12/28 09:19:28;;;;;;;;;;;;;;;18.34;57.16;102026.50;7392760;19;1853;-50
2023/12/28 09:21:59;;;;;;;;;;;;;;;18.32;57.40;102052.53;7392857;19;1914;-51
2023/12/28 09:24:28;;;;;;;;;;;;;;;18.23;57.51;102012.00;7392774;19;1495;-51
2023/12/28 09:26:56;;;;;;;;;;;;;;;18.15;57.61;102019.69;7391691;19;1351;-51
2023/12/28 09:29:24;;;;;;;;;;;;;;;18.13;57.84;102008.19;7392847;19;1124;-51
2023/12/28 09:31:53;;;;;;;;;;;;;;;18.08;57.79;102003.16;7392703;19;1663;-51
2023/12/28 09:34:21;;;;;;;;;;;;;;;18.09;57.95;102004.88;7390774;19;1748;-51
2023/12/28 09:36:49;;;;;;;;;;;;;;;18.09;58.04;101998.66;7392060;19;1782;-51
2023/12/28 09:39:20;;;;;;;;;;;;;;;18.06;57.86;101996.16;7399453;19;1826;-51
2023/12/28 09:41:51;;;;;;;;;;;;;;;18.05;57.90;101967.69;7397880;19;1851;-50
2023/12/28 09:44:21;;;;;;;;;;;;;;;18.00;58.08;101983.19;7401214;19;1034;-50
2023/12/28 09:46:49;;;;;;;;;;;;;;;18.04;58.04;101982.03;7399681;19;1919;-50
2023/12/28 09:49:18;;;;;;;;;;;;;;;18.09;57.95;101978.09;7385005;19;2016;-50
2023/12/28 09:51:48;;;;;;;;;;;;;;;18.02;58.11;101967.88;7399597;19;1082;-50
2023/12/28 09:54:18;;;;;;;;;;;;;;;18.03;58.13;101961.59;7400022;19;1827;-51
2023/12/28 09:56:49;;;;;;;;;;;;;;;17.97;58.25;101967.34;7398686;19;1614;-51
2023/12/28 09:59:18;;;;;;;;;;;;;;;17.93;58.26;101953.28;7399252;19;1883;-51
2023/12/28 10:01:48;;;;;;;;;;;;;;;17.86;58.75;101950.13;7397767;19;1857;-51
2023/12/28 10:04:17;;;;;;;;;;;;;;;17.86;58.46;101962.66;7398865;19;1713;-51
2023/12/28 10:06:46;;;;;;;;;;;;;;;17.91;58.66;101940.97;7398643;19;1745;-51
2023/12/28 10:09:14;;;;;;;;;;;;;;;17.97;58.46;101940.56;7397638;19;1720;-51
2023/12/28 10:11:43;;;;;;;;;;;;;;;18.00;58.09;101938.53;7398479;19;1036;-51
2023/12/28 10:14:14;;;;;;;;;;;;;;;18.11;58.07;101953.06;7399904;19;1037;-51
2023/12/28 10:16:43;;;;;;;;;;;;;;;17.94;58.30;101940.75;7398712;19;1828;-50
2023/12/28 10:19:11;;;;;;;;;;;;;;;18.03;58.18;101940.16;7398230;19;1777;-51
2023/12/28 10:21:43;;;;;;;;;;;;;;;18.07;58.02;101930.97;7395289;19;1860;-51
2023/12/28 10:24:12;;;;;;;;;;;;;;;17.99;58.65;101907.38;7398611;19;1350;-55
2023/12/28 10:26:42;;;;;;;;;;;;;;;18.40;57.48;101903.78;7398406;19;1665;-51
2023/12/28 10:29:10;;;;;;;;;;;;;;;18.64;56.86;101903.03;7398228;19;1125;-51
2023/12/28 10:31:44;;;;;;;;;;;;;;;18.51;57.24;101886.13;7397405;19;1469;-51
2023/12/28 10:34:12;;;;;;;;;;;;;;;18.44;57.27;101886.53;7397013;19;1484;-50
2023/12/28 10:36:41;;;;;;;;;;;;;;;18.35;57.42;101880.94;7398274;19;1802;-51
2023/12/28 10:39:11;;;;;;;;;;;;;;;18.26;57.72;101877.94;7397210;19;1737;-51
2023/12/28 10:41:39;;;;;;;;;;;;;;;18.25;57.79;101878.88;7396654;19;1873;-51
2023/12/28 10:44:08;;;;;;;;;;;;;;;18.27;57.57;101873.44;7395435;19;1488;-51
2023/12/28 10:46:40;;;;;;;;;;;;;;;18.25;57.88;101878.03;7398178;19;1879;-51
2023/12/28 10:49:14;;;;;;;;;;;;;;;18.26;57.88;101872.56;7381618;19;1764;-51
2023/12/28 10:51:43;;;;;;;;;;;;;;;18.21;57.95;101857.78;7395816;19;1445;-51
2023/12/28 10:54:16;;;;;;;;;;;;;;;18.18;57.80;101847.25;7397517;19;1847;-51
2023/12/28 10:56:47;;;;;;;;;;;;;;;18.24;57.94;101844.16;7396892;19;1677;-51
2023/12/28 10:59:20;;;;;;;;;;;;;;;18.20;57.89;101832.81;7397090;19;1678;-51
2023/12/28 11:01:49;;;;;;;;;;;;;;;18.19;57.97;101838.28;7395610;19;1855;-51
2023/12/28 11:04:25;;;;;;;;;;;;;;;18.20;57.94;101840.84;7396110;19;1417;-50
2023/12/28 11:06:54;;;;;;;;;;;;;;;18.16;57.95;101828.63;7395860;19;1374;-51
2023/12/28 11:09:23;;;;;;;;;;;;;;;18.15;58.16;101832.28;7395736;19;1776;-50
2023/12/28 11:11:52;;;;;;;;;;;;;;;18.16;58.19;101836.66;7397202;19;1429;-51
2023/12/28 11:14:20;;;;;;;;;;;;;;;18.11;58.20;101822.75;7395615;19;1045;-51
2023/12/28 11:16:49;;;;;;;;;;;;;;;18.08;58.00;101814.91;7396789;19;1515;-51
2023/12/28 11:19:17;;;;;;;;;;;;;;;18.05;58.37;101807.09;7396780;19;1847;-50
2023/12/28 11:21:48;;;;;;;;;;;;;;;18.01;58.50;101809.13;7395188;19;1897;-51
2023/12/28 11:24:17;;;;;;;;;;;;;;;18.02;58.19;101804.63;7396795;19;1367;-50
2023/12/28 11:26:46;;;;;;;;;;;;;;;18.06;58.34;101798.09;7396099;19;1484;-50
2023/12/28 11:29:14;;;;;;;;;;;;;;;18.03;58.27;101803.66;7396970;19;1116;-52
2023/12/28 11:31:43;;;;;;;;;;;;;;;17.99;58.45;101804.84;7396694;19;2105;-51
2023/12/28 11:34:17;;;;;;;;;;;;;;;17.78;58.49;101777.66;7395733;19;1782;-51
2023/12/28 11:36:51;;;;;;;;;;;;;;;18.02;58.49;101812.66;7396561;19;1796;-51
2023/12/28 11:39:23;;;;;;;;;;;;;;;18.02;58.37;101809.97;7396593;19;1433;-51
2023/12/28 11:41:52;;;;;;;;;;;;;;;18.00;58.38;101806.53;7394944;19;1839;-51
2023/12/28 11:44:20;;;;;;;;;;;;;;;18.03;58.34;101803.66;7397343;19;1018;-51
2023/12/28 11:46:48;;;;;;;;;;;;;;;17.95;58.47;101808.69;7396137;19;1908;-50
2023/12/28 11:49:17;;;;;;;;;;;;;;;17.98;58.82;101798.59;7380638;19;1776;-51
2023/12/28 11:51:45;;;;;;;;;;;;;;;18.32;58.08;101780.22;7393650;19;1430;-50
2023/12/28 11:54:16;;;;;;;;;;;;;;;18.43;57.63;101787.53;7390602;19;1393;-51
2023/12/28 11:56:44;;;;;;;;;;;;;;;18.33;57.81;101778.44;7391883;19;1391;-51
2023/12/28 11:59:13;;;;;;;;;;;;;;;18.18;58.14;101799.94;7394270;19;1413;-51
2023/12/28 12:01:41;;;;;;;;;;;;;;;18.07;58.17;101776.56;7390754;19;1846;-51
2023/12/28 12:04:10;;;;;;;;;;;;;;;18.05;58.24;101778.50;7393593;19;1775;-51
2023/12/28 12:06:38;;;;;;;;;;;;;;;17.88;58.61;101776.09;7393335;19;1831;-51
2023/12/28 12:09:06;;;;;;;;;;;;;;;17.89;58.89;101776.00;7394645;19;2010;-51
2023/12/28 12:11:38;;;;;;;;;;;;;;;17.83;58.65;101771.06;7394862;19;947;-51
2023/12/28 12:14:10;;;;;;;;;;;;;;;17.85;58.87;101761.13;7394317;19;1602;-51
2023/12/28 12:16:39;;;;;;;;;;;;;;;17.92;58.73;101779.44;7393654;19;1741;-50
2023/12/28 12:19:07;;;;;;;;;;;;;;;17.89;58.60;101776.00;7390301;19;1504;-51
2023/12/28 12:21:36;;;;;;;;;;;;;;;17.88;58.74;101763.56;7391622;19;1836;-50
2023/12/28 12:24:04;;;;;;;;;;;;;;;17.84;58.60;101729.97;7393880;19;1350;-51
2023/12/28 12:26:36;;;;;;;;;;;;;;;17.83;58.77;101736.28;7394198;19;1900;-50
2023/12/28 12:29:07;;;;;;;;;;;;;;;17.82;58.83;101755.94;7394580;19;1029;-51
2023/12/28 12:31:37;;;;;;;;;;;;;;;17.83;58.66;101730.94;7393666;19;1848;-57
2023/12/28 12:34:06;;;;;;;;;;;;;;;17.80;58.97;101747.16;7394341;19;1709;-51
2023/12/28 12:36:34;;;;;;;;;;;;;;;17.71;59.17;101734.41;7393967;19;1686;-51
2023/12/28 12:39:03;;;;;;;;;;;;;;;17.91;58.79;101737.59;7392830;19;1417;-51
2023/12/28 12:41:31;;;;;;;;;;;;;;;18.28;58.06;101742.13;7392346;19;1851;-51
2023/12/28 12:44:00;;;;;;;;;;;;;;;18.12;58.32;101732.56;7393262;19;1900;-50
2023/12/28 12:46:31;;;;;;;;;;;;;;;18.06;58.56;101733.84;7393366;19;1839;-50
2023/12/28 12:48:59;;;;;;;;;;;;;;;17.91;58.59;101722.41;7378564;19;1753;-51
2023/12/28 12:51:28;;;;;;;;;;;;;;;17.88;58.66;101723.44;7393274;19;1358;-50
2023/12/28 12:53:59;;;;;;;;;;;;;;;17.83;58.73;101720.25;7392896;19;1673;-51
2023/12/28 12:56:28;;;;;;;;;;;;;;;17.86;58.81;101721.84;7393732;19;1106;-50